Patraikos — A8UK9 — position and weather

sailwx.info

Track history (hours):
 
Tides and Currents Weather Stations Pressure Air Temp Water Temp Dewpoint Dewpoint Depression Visibility Wind Speed Wind Dir Waves Ship Positions

Patraikos

Last reported at 2018-Feb-12 09:44 UTC. Time now 2018-Feb-21 01:26 UTC.
Position N 22°01' E 120°26'.
Warning: this ship's position is 8 days out of date.

Length 262 m; draft 11.6 m.

Type: Ship (hazmat cat A). MMSI: 636014515.

Date/timePositionNaut miles runAvg speedWind from/ knotsBaromVisibWave heightAir tempDewpointWater temp
2018-Feb-12 09:44N 22°01' E 120°26'417.0
2018-Feb-12 09:29N 22°05' E 120°24'816.9
2018-Feb-12 09:00N 22°12' E 120°20'817.1
2018-Feb-12 08:30N 22°20' E 120°17'916.9
2018-Feb-12 08:00N 22°28' E 120°13'611.7
2018-Feb-12 07:31N 22°33' E 120°15'4 7.5
2018-Feb-12 07:00N 22°33' E 120°20'0 0.9
2018-Feb-12 06:28N 22°33' E 120°20'0 0.0
2018-Feb-12 05:58N 22°33' E 120°20'0 0.0
2018-Feb-12 05:28N 22°33' E 120°20'0 0.0
2018-Feb-12 04:58N 22°33' E 120°20'0 0.0
2018-Feb-12 04:28N 22°33' E 120°20'0 0.0
2018-Feb-12 03:58N 22°33' E 120°20'0 0.0
2018-Feb-12 03:25N 22°33' E 120°20'0 0.0
2018-Feb-12 02:58N 22°33' E 120°20'0 0.0
2018-Feb-12 02:28N 22°33' E 120°20'0 0.0
2018-Feb-12 01:55N 22°33' E 120°20'0 0.0
2018-Feb-12 01:22N 22°33' E 120°20'0 0.0
2018-Feb-12 00:55N 22°33' E 120°20'0 0.0
2018-Feb-12 00:28N 22°33' E 120°20'0 0.0
2018-Feb-11 23:58N 22°33' E 120°20'1 2.2
2018-Feb-11 23:30N 22°33' E 120°19'3 6.5
2018-Feb-11 23:00N 22°32' E 120°15'5 9.9
2018-Feb-11 22:30N 22°30' E 120°10'611.2
2018-Feb-11 22:00N 22°31' E 120°04'611.9
2018-Feb-11 21:30N 22°30' E 119°58'612.9
2018-Feb-11 21:00N 22°30' E 119°51'1019.0
2018-Feb-11 20:30N 22°29' E 119°41'1017.9
2018-Feb-11 19:57N 22°28' E 119°30'  
2018-Feb-09 12:00N 23°26' E 117°44'7117.7
2018-Feb-09 08:00N 24°10' E 118°45'45714.2
2018-Feb-07 23:55N 30°58' E 122°36'913.2
2018-Feb-07 23:13N 31°05' E 122°30'513.6
2018-Feb-07 22:50N 31°06' E 122°24'45 3.3
2018-Feb-07 09:28N 31°22' E 121°35'0 0.0
2018-Feb-07 08:40N 31°22' E 121°35'0 0.1
2018-Feb-07 08:10N 31°22' E 121°35'0 0.0
2018-Feb-07 06:34N 31°22' E 121°35'0 0.0
2018-Feb-07 06:19N 31°22' E 121°35'0 0.1
2018-Feb-07 05:22N 31°22' E 121°35'0 0.1
2018-Feb-07 04:52N 31°22' E 121°35'0 0.0
2018-Feb-07 04:22N 31°22' E 121°35'0 0.0
2018-Feb-07 03:58N 31°22' E 121°35'0 0.1
2018-Feb-07 03:28N 31°22' E 121°35'0 0.1
2018-Feb-07 02:58N 31°22' E 121°35'0 0.0
2018-Feb-07 02:28N 31°22' E 121°35'0 0.1
2018-Feb-07 01:58N 31°22' E 121°35'0 0.1
2018-Feb-07 01:16N 31°22' E 121°35'0 0.1
2018-Feb-07 01:00N 31°22' E 121°35'2 4.8
2018-Feb-07 00:29N 31°22' E 121°38'611.3
2018-Feb-07 00:00N 31°19' E 121°44'5 8.7
2018-Feb-06 23:29N 31°17' E 121°49'4 9.1
2018-Feb-06 23:00N 31°16' E 121°54'5 9.6
2018-Feb-06 22:30N 31°15' E 121°59'510.0
2018-Feb-06 22:00N 31°14' E 122°05'5 8.9
2018-Feb-06 21:26N 31°11' E 122°10'5 6.9
2018-Feb-06 20:46N 31°09' E 122°14'3 9.5
2018-Feb-06 20:30N 31°07' E 122°17'5 8.8
2018-Feb-06 19:59N 31°06' E 122°22'4 7.6
2018-Feb-06 19:30N 31°07' E 122°26'7 6.9
2018-Feb-06 18:34N 31°07' E 122°33'0 6.2
2018-Feb-06 18:30N 31°07' E 122°34'6 1.7
2018-Feb-06 14:56N 31°04' E 122°40'0 0.1
2018-Feb-06 14:02N 31°04' E 122°41'0 0.0
2018-Feb-06 13:59N 31°04' E 122°41'0 0.0
2018-Feb-05 17:53N 31°04' E 122°41'0 0.0
2018-Feb-05 04:47N 31°04' E 122°41'  
Track history (hours):
 
Tides and Currents Weather Stations Pressure Air Temp Water Temp Dewpoint Dewpoint Depression Visibility Wind Speed Wind Dir Waves Ship Positions

Patraikos

Last reported at 2018-Feb-12 09:44 UTC. Time now 2018-Feb-21 01:26 UTC.
Position N 22°01' E 120°26'.
Warning: this ship's position is 8 days out of date.

Length 262 m; draft 11.6 m.

Type: Ship (hazmat cat A). MMSI: 636014515.

Date/timePositionNaut miles runAvg speedWind from/ knotsBaromVisibWave heightAir tempDewpointWater temp
2018-Feb-12 09:44N 22°01' E 120°26'417.0
2018-Feb-12 09:29N 22°05' E 120°24'816.9
2018-Feb-12 09:00N 22°12' E 120°20'817.1
2018-Feb-12 08:30N 22°20' E 120°17'916.9
2018-Feb-12 08:00N 22°28' E 120°13'611.7
2018-Feb-12 07:31N 22°33' E 120°15'4 7.5
2018-Feb-12 07:00N 22°33' E 120°20'0 0.9
2018-Feb-12 06:28N 22°33' E 120°20'0 0.0
2018-Feb-12 05:58N 22°33' E 120°20'0 0.0
2018-Feb-12 05:28N 22°33' E 120°20'0 0.0
2018-Feb-12 04:58N 22°33' E 120°20'0 0.0
2018-Feb-12 04:28N 22°33' E 120°20'0 0.0
2018-Feb-12 03:58N 22°33' E 120°20'0 0.0
2018-Feb-12 03:25N 22°33' E 120°20'0 0.0
2018-Feb-12 02:58N 22°33' E 120°20'0 0.0
2018-Feb-12 02:28N 22°33' E 120°20'0 0.0
2018-Feb-12 01:55N 22°33' E 120°20'0 0.0
2018-Feb-12 01:22N 22°33' E 120°20'0 0.0
2018-Feb-12 00:55N 22°33' E 120°20'0 0.0
2018-Feb-12 00:28N 22°33' E 120°20'0 0.0
2018-Feb-11 23:58N 22°33' E 120°20'1 2.2
2018-Feb-11 23:30N 22°33' E 120°19'3 6.5
2018-Feb-11 23:00N 22°32' E 120°15'5 9.9
2018-Feb-11 22:30N 22°30' E 120°10'611.2
2018-Feb-11 22:00N 22°31' E 120°04'611.9
2018-Feb-11 21:30N 22°30' E 119°58'612.9
2018-Feb-11 21:00N 22°30' E 119°51'1019.0
2018-Feb-11 20:30N 22°29' E 119°41'1017.9
2018-Feb-11 19:57N 22°28' E 119°30'  
2018-Feb-09 12:00N 23°26' E 117°44'7117.7
2018-Feb-09 08:00N 24°10' E 118°45'45714.2
2018-Feb-07 23:55N 30°58' E 122°36'913.2
2018-Feb-07 23:13N 31°05' E 122°30'513.6
2018-Feb-07 22:50N 31°06' E 122°24'45 3.3
2018-Feb-07 09:28N 31°22' E 121°35'0 0.0
2018-Feb-07 08:40N 31°22' E 121°35'0 0.1
2018-Feb-07 08:10N 31°22' E 121°35'0 0.0
2018-Feb-07 06:34N 31°22' E 121°35'0 0.0
2018-Feb-07 06:19N 31°22' E 121°35'0 0.1
2018-Feb-07 05:22N 31°22' E 121°35'0 0.1
2018-Feb-07 04:52N 31°22' E 121°35'0 0.0
2018-Feb-07 04:22N 31°22' E 121°35'0 0.0
2018-Feb-07 03:58N 31°22' E 121°35'0 0.1
2018-Feb-07 03:28N 31°22' E 121°35'0 0.1
2018-Feb-07 02:58N 31°22' E 121°35'0 0.0
2018-Feb-07 02:28N 31°22' E 121°35'0 0.1
2018-Feb-07 01:58N 31°22' E 121°35'0 0.1
2018-Feb-07 01:16N 31°22' E 121°35'0 0.1
2018-Feb-07 01:00N 31°22' E 121°35'2 4.8
2018-Feb-07 00:29N 31°22' E 121°38'611.3
2018-Feb-07 00:00N 31°19' E 121°44'5 8.7
2018-Feb-06 23:29N 31°17' E 121°49'4 9.1
2018-Feb-06 23:00N 31°16' E 121°54'5 9.6
2018-Feb-06 22:30N 31°15' E 121°59'510.0
2018-Feb-06 22:00N 31°14' E 122°05'5 8.9
2018-Feb-06 21:26N 31°11' E 122°10'5 6.9
2018-Feb-06 20:46N 31°09' E 122°14'3 9.5
2018-Feb-06 20:30N 31°07' E 122°17'5 8.8
2018-Feb-06 19:59N 31°06' E 122°22'4 7.6
2018-Feb-06 19:30N 31°07' E 122°26'7 6.9
2018-Feb-06 18:34N 31°07' E 122°33'0 6.2
2018-Feb-06 18:30N 31°07' E 122°34'6 1.7
2018-Feb-06 14:56N 31°04' E 122°40'0 0.1
2018-Feb-06 14:02N 31°04' E 122°41'0 0.0
2018-Feb-06 13:59N 31°04' E 122°41'0 0.0
2018-Feb-05 17:53N 31°04' E 122°41'0 0.0
2018-Feb-05 04:47N 31°04' E 122°41'  

Dump ship's entire track history